Strona główna
METAR-TAF:

METAR-TAF

Lotnisko :

Port lotniczy Bangkok-Don Muang

Bangkok, Tajlandia

Szerokość geograficzna: 13-54-45N, Długość geograficzna: 100-36-24E, wysokość: 4 m

Aktualna obserwacja pogody

Raport powstał 26 minut temu, godzina 08:00 UTC
Wiatr 9 kt od wschodnio-północny wschód, zmienny między północno-północny wschód i wschód
Temperatura 33°C
Wilgotność 36%
Ciśnienie 1014 hPa
Widzialność 10 km lub więcej
Mało chmury na wysokości 2000 ft

METAR: VTBD 220800Z 07009KT 020V100 9999 FEW020 33/16 Q1014 NOSIG

czas: 15:26 (08:26 UTC)

Prognoza

Raport powstał 3 godziny i 26 minut temu, godzina 05:00 UTC
Prognoza ważna od 22 godzina 06 UTC do 23 godzina 12 UTC
Wiatr 10 kt od wschód
Widzialność 10 km lub więcej
Mało chmury na wysokości 2000 ft
Stopniowe zmiany
od 22 godzina 16 UTC do 22 godzina 18 UTC
Wiatr 8 kt od północno-północny wschód
Stopniowe zmiany
od 23 godzina 00 UTC do 23 godzina 02 UTC
Wiatr 8 kt od wschód

TAF: VTBD 220500Z 2206/2312 09010KT 9999 FEW020 BECMG 2216/2218 03008KT BECMG 2300/2302 09008KT

Obserwacja i prognoza pogody dla ponad 4000 lotnisk (raport METAR i TAF).

Dostępne stacje oznaczono żółtymi i czerwonymi punktami na mapie.

Najedź kursorem aby zobaczyć nazwę stacji.

Kliknij aby zobaczyć obserwacje i prognozy pogody.

Aby zmienić mapę: kliknij na zielony przycisk z czarnym krzyżykiem, aby powiększyć; na zielony przycisk z myślnikiem, aby pomniejszyć; na zielone strzałki, aby przejść do map sąsiednich.


METAR-TAF: